sensor_id;sensor_type;location;lat;lon;timestamp;pressure;altitude;pressure_sealevel;temperature;humidity
48530;BME280;34927;37.302;-121.982;2023-03-15T06:01:08;65830.0;;;22.86;87.55
48530;BME280;34927;37.302;-121.982;2023-03-15T06:02:12;100616.0;;;18.73;50.12
48530;BME280;34927;37.302;-121.982;2023-03-15T06:03:17;100617.0;;;18.98;49.21
48530;BME280;34927;37.302;-121.982;2023-03-15T06:04:22;100623.0;;;19.30;48.46
48530;BME280;34927;37.302;-121.982;2023-03-15T06:05:27;100620.0;;;19.58;47.77
48530;BME280;34927;37.302;-121.982;2023-03-15T06:06:32;100620.0;;;19.71;47.44
48530;BME280;34927;37.302;-121.982;2023-03-15T06:07:37;100621.0;;;19.89;47.22
48530;BME280;34927;37.302;-121.982;2023-03-15T06:08:42;100625.0;;;19.93;47.13
48530;BME280;34927;37.302;-121.982;2023-03-15T06:09:47;100626.0;;;20.03;46.94
48530;BME280;34927;37.302;-121.982;2023-03-15T06:10:51;100630.0;;;20.06;46.65
48530;BME280;34927;37.302;-121.982;2023-03-15T06:11:57;100630.0;;;20.16;46.48
48530;BME280;34927;37.302;-121.982;2023-03-15T06:13:01;100631.0;;;20.26;46.30
48530;BME280;34927;37.302;-121.982;2023-03-15T06:14:08;100632.0;;;20.35;45.93
48530;BME280;34927;37.302;-121.982;2023-03-15T06:15:11;100637.0;;;20.25;46.27
48530;BME280;34927;37.302;-121.982;2023-03-15T06:16:16;100636.0;;;20.28;46.08
48530;BME280;34927;37.302;-121.982;2023-03-15T06:17:22;100641.0;;;20.32;45.91
48530;BME280;34927;37.302;-121.982;2023-03-15T06:18:26;100639.0;;;20.29;45.82
48530;BME280;34927;37.302;-121.982;2023-03-15T06:19:31;100637.0;;;20.55;45.21
48530;BME280;34927;37.302;-121.982;2023-03-15T06:20:36;100643.0;;;20.45;45.29
48530;BME280;34927;37.302;-121.982;2023-03-15T06:21:42;100645.0;;;20.42;45.40
48530;BME280;34927;37.302;-121.982;2023-03-15T06:22:46;100645.0;;;20.42;45.38
48530;BME280;34927;37.302;-121.982;2023-03-15T06:23:52;100646.0;;;20.39;45.27
48530;BME280;34927;37.302;-121.982;2023-03-15T06:24:57;100644.0;;;20.36;45.23
48530;BME280;34927;37.302;-121.982;2023-03-15T06:26:01;100643.0;;;20.36;45.05
48530;BME280;34927;37.302;-121.982;2023-03-15T06:27:06;100642.0;;;20.36;45.04
48530;BME280;34927;37.302;-121.982;2023-03-15T06:28:12;100644.0;;;20.40;45.04
48530;BME280;34927;37.302;-121.982;2023-03-15T06:29:17;100642.0;;;20.39;44.97
48530;BME280;34927;37.302;-121.982;2023-03-15T06:30:21;100642.0;;;20.55;44.51
48530;BME280;34927;37.302;-121.982;2023-03-15T06:31:26;100642.0;;;20.51;44.67
48530;BME280;34927;37.302;-121.982;2023-03-15T06:32:32;100647.0;;;20.48;44.74
48530;BME280;34927;37.302;-121.982;2023-03-15T06:33:37;100650.0;;;20.57;44.33
48530;BME280;34927;37.302;-121.982;2023-03-15T06:34:42;100651.0;;;20.55;44.41
48530;BME280;34927;37.302;-121.982;2023-03-15T06:35:46;100657.0;;;20.57;44.37
48530;BME280;34927;37.302;-121.982;2023-03-15T06:36:51;100662.0;;;20.61;44.17
48530;BME280;34927;37.302;-121.982;2023-03-15T06:37:56;100666.0;;;20.60;44.17
48530;BME280;34927;37.302;-121.982;2023-03-15T06:39:02;100667.0;;;20.60;44.16
48530;BME280;34927;37.302;-121.982;2023-03-15T06:40:08;100670.0;;;20.59;44.09
48530;BME280;34927;37.302;-121.982;2023-03-15T06:41:12;100669.0;;;20.51;44.27
48530;BME280;34927;37.302;-121.982;2023-03-15T06:42:17;100668.0;;;20.53;44.32
48530;BME280;34927;37.302;-121.982;2023-03-15T06:43:21;100663.0;;;20.61;44.08
48530;BME280;34927;37.302;-121.982;2023-03-15T06:44:26;100661.0;;;20.52;44.26
48530;BME280;34927;37.302;-121.982;2023-03-15T06:45:31;100658.0;;;20.47;44.21
48530;BME280;34927;37.302;-121.982;2023-03-15T06:46:37;100658.0;;;20.36;44.39
48530;BME280;34927;37.302;-121.982;2023-03-15T06:47:41;100653.0;;;20.48;44.21
48530;BME280;34927;37.302;-121.982;2023-03-15T06:48:46;100656.0;;;20.45;44.10
48530;BME280;34927;37.302;-121.982;2023-03-15T06:49:51;100654.0;;;20.67;43.67
48530;BME280;34927;37.302;-121.982;2023-03-15T06:50:57;100661.0;;;20.67;43.55
48530;BME280;34927;37.302;-121.982;2023-03-15T06:52:02;100668.0;;;20.65;43.46
48530;BME280;34927;37.302;-121.982;2023-03-15T06:53:07;100674.0;;;20.81;43.22
48530;BME280;34927;37.302;-121.982;2023-03-15T06:54:11;100680.0;;;20.79;43.09
48530;BME280;34927;37.302;-121.982;2023-03-15T06:55:17;100681.0;;;20.82;43.09
48530;BME280;34927;37.302;-121.982;2023-03-15T06:56:21;100684.0;;;20.81;42.97
48530;BME280;34927;37.302;-121.982;2023-03-15T06:57:27;100684.0;;;20.81;42.93
48530;BME280;34927;37.302;-121.982;2023-03-15T06:58:31;100687.0;;;20.75;42.95
48530;BME280;34927;37.302;-121.982;2023-03-15T06:59:36;100687.0;;;20.92;42.80
48530;BME280;34927;37.302;-121.982;2023-03-15T07:00:41;100687.0;;;20.80;43.08
48530;BME280;34927;37.302;-121.982;2023-03-15T07:01:47;100692.0;;;20.68;43.06
48530;BME280;34927;37.302;-121.982;2023-03-15T07:02:52;100692.0;;;20.73;43.15
48530;BME280;34927;37.302;-121.982;2023-03-15T07:03:57;100692.0;;;20.73;43.18
48530;BME280;34927;37.302;-121.982;2023-03-15T07:05:02;100692.0;;;20.77;43.10
48530;BME280;34927;37.302;-121.982;2023-03-15T07:06:07;100689.0;;;20.68;43.38
48530;BME280;34927;37.302;-121.982;2023-03-15T07:07:12;100687.0;;;20.68;43.22
48530;BME280;34927;37.302;-121.982;2023-03-15T07:08:17;100691.0;;;20.61;43.37
48530;BME280;34927;37.302;-121.982;2023-03-15T07:09:21;100691.0;;;20.67;43.21
48530;BME280;34927;37.302;-121.982;2023-03-15T07:10:27;100690.0;;;20.60;43.35
48530;BME280;34927;37.302;-121.982;2023-03-15T07:11:32;100690.0;;;20.51;43.56
48530;BME280;34927;37.302;-121.982;2023-03-15T07:12:36;100695.0;;;20.61;43.47
48530;BME280;34927;37.302;-121.982;2023-03-15T07:13:42;100698.0;;;20.59;43.36
48530;BME280;34927;37.302;-121.982;2023-03-15T07:14:47;100700.0;;;20.49;43.53
48530;BME280;34927;37.302;-121.982;2023-03-15T07:15:52;100703.0;;;20.67;43.18
48530;BME280;34927;37.302;-121.982;2023-03-15T07:16:57;100702.0;;;20.77;42.94
48530;BME280;34927;37.302;-121.982;2023-03-15T07:18:02;100702.0;;;20.49;43.40
48530;BME280;34927;37.302;-121.982;2023-03-15T07:19:07;100704.0;;;20.56;43.33
48530;BME280;34927;37.302;-121.982;2023-03-15T07:20:12;100705.0;;;20.68;43.01
48530;BME280;34927;37.302;-121.982;2023-03-15T07:21:16;100703.0;;;20.68;42.95
48530;BME280;34927;37.302;-121.982;2023-03-15T07:22:22;100707.0;;;20.65;42.91
48530;BME280;34927;37.302;-121.982;2023-03-15T07:23:27;100708.0;;;20.61;43.26
48530;BME280;34927;37.302;-121.982;2023-03-15T07:24:31;100709.0;;;20.64;42.95
48530;BME280;34927;37.302;-121.982;2023-03-15T07:25:36;100709.0;;;20.54;43.12
48530;BME280;34927;37.302;-121.982;2023-03-15T07:26:42;100705.0;;;20.54;43.08
48530;BME280;34927;37.302;-121.982;2023-03-15T07:27:46;100703.0;;;20.62;42.90
48530;BME280;34927;37.302;-121.982;2023-03-15T07:28:52;100699.0;;;20.55;42.95
48530;BME280;34927;37.302;-121.982;2023-03-15T07:29:56;100702.0;;;20.60;42.90
48530;BME280;34927;37.302;-121.982;2023-03-15T07:31:03;100702.0;;;20.66;42.70
48530;BME280;34927;37.302;-121.982;2023-03-15T07:32:07;100700.0;;;20.48;42.94
48530;BME280;34927;37.302;-121.982;2023-03-15T07:33:11;100702.0;;;20.53;42.86
48530;BME280;34927;37.302;-121.982;2023-03-15T07:34:17;100709.0;;;20.62;42.64
48530;BME280;34927;37.302;-121.982;2023-03-15T07:35:22;100715.0;;;20.48;42.83
48530;BME280;34927;37.302;-121.982;2023-03-15T07:36:26;100720.0;;;20.53;42.87
48530;BME280;34927;37.302;-121.982;2023-03-15T07:37:32;100717.0;;;20.42;42.89
48530;BME280;34927;37.302;-121.982;2023-03-15T07:38:37;100717.0;;;20.51;42.80
48530;BME280;34927;37.302;-121.982;2023-03-15T07:39:41;100717.0;;;20.44;42.97
48530;BME280;34927;37.302;-121.982;2023-03-15T07:40:47;100716.0;;;20.46;42.81
48530;BME280;34927;37.302;-121.982;2023-03-15T07:41:51;100715.0;;;20.41;42.87
48530;BME280;34927;37.302;-121.982;2023-03-15T07:42:57;100713.0;;;20.43;42.79
48530;BME280;34927;37.302;-121.982;2023-03-15T07:44:02;100714.0;;;20.36;43.22
48530;BME280;34927;37.302;-121.982;2023-03-15T07:45:08;100715.0;;;20.35;43.16
48530;BME280;34927;37.302;-121.982;2023-03-15T07:46:11;100716.0;;;20.28;43.28
48530;BME280;34927;37.302;-121.982;2023-03-15T07:47:16;100715.0;;;20.32;43.05
48530;BME280;34927;37.302;-121.982;2023-03-15T07:48:21;100715.0;;;20.28;43.14
48530;BME280;34927;37.302;-121.982;2023-03-15T07:49:26;100716.0;;;20.33;43.03
48530;BME280;34927;37.302;-121.982;2023-03-15T07:50:32;100719.0;;;20.37;42.92
48530;BME280;34927;37.302;-121.982;2023-03-15T07:51:36;100713.0;;;20.34;42.82
48530;BME280;34927;37.302;-121.982;2023-03-15T07:52:41;100712.0;;;20.23;42.99
48530;BME280;34927;37.302;-121.982;2023-03-15T07:53:47;100710.0;;;20.34;42.83
48530;BME280;34927;37.302;-121.982;2023-03-15T07:54:51;100709.0;;;20.34;42.75
48530;BME280;34927;37.302;-121.982;2023-03-15T07:55:57;100707.0;;;20.33;42.73
48530;BME280;34927;37.302;-121.982;2023-03-15T07:57:01;100709.0;;;20.29;42.76
48530;BME280;34927;37.302;-121.982;2023-03-15T07:58:07;100708.0;;;20.53;42.67
48530;BME280;34927;37.302;-121.982;2023-03-15T07:59:11;100712.0;;;20.45;42.65
48530;BME280;34927;37.302;-121.982;2023-03-15T08:00:17;100716.0;;;20.46;42.51
48530;BME280;34927;37.302;-121.982;2023-03-15T08:01:21;100716.0;;;20.32;42.75
48530;BME280;34927;37.302;-121.982;2023-03-15T08:02:26;100717.0;;;20.33;42.68
48530;BME280;34927;37.302;-121.982;2023-03-15T08:03:32;100716.0;;;20.39;42.51
48530;BME280;34927;37.302;-121.982;2023-03-15T08:04:36;100715.0;;;20.32;42.50
48530;BME280;34927;37.302;-121.982;2023-03-15T08:05:42;100715.0;;;20.34;42.48
48530;BME280;34927;37.302;-121.982;2023-03-15T08:06:47;100714.0;;;20.28;42.58
48530;BME280;34927;37.302;-121.982;2023-03-15T08:07:51;100711.0;;;20.46;42.21
48530;BME280;34927;37.302;-121.982;2023-03-15T08:08:57;100713.0;;;20.25;42.68
48530;BME280;34927;37.302;-121.982;2023-03-15T08:10:02;100712.0;;;20.29;42.68
48530;BME280;34927;37.302;-121.982;2023-03-15T08:11:07;100712.0;;;20.23;42.75
48530;BME280;34927;37.302;-121.982;2023-03-15T08:12:12;100711.0;;;20.28;42.50
48530;BME280;34927;37.302;-121.982;2023-03-15T08:13:17;100711.0;;;20.29;42.51
48530;BME280;34927;37.302;-121.982;2023-03-15T08:14:21;100713.0;;;20.29;42.56
48530;BME280;34927;37.302;-121.982;2023-03-15T08:15:27;100714.0;;;20.28;42.44
48530;BME280;34927;37.302;-121.982;2023-03-15T08:16:32;100716.0;;;20.21;42.52
48530;BME280;34927;37.302;-121.982;2023-03-15T08:17:37;100717.0;;;20.29;42.36
48530;BME280;34927;37.302;-121.982;2023-03-15T08:18:42;100722.0;;;20.18;42.49
48530;BME280;34927;37.302;-121.982;2023-03-15T08:19:46;100722.0;;;20.25;42.39
48530;BME280;34927;37.302;-121.982;2023-03-15T08:20:52;100721.0;;;20.14;42.56
48530;BME280;34927;37.302;-121.982;2023-03-15T08:21:56;100723.0;;;20.21;42.44
48530;BME280;34927;37.302;-121.982;2023-03-15T08:23:02;100721.0;;;20.18;42.46
48530;BME280;34927;37.302;-121.982;2023-03-15T08:24:06;100720.0;;;20.20;42.21
48530;BME280;34927;37.302;-121.982;2023-03-15T08:25:13;100716.0;;;20.15;42.36
48530;BME280;34927;37.302;-121.982;2023-03-15T08:26:16;100716.0;;;20.20;42.25
48530;BME280;34927;37.302;-121.982;2023-03-15T08:27:23;100713.0;;;20.19;42.29
48530;BME280;34927;37.302;-121.982;2023-03-15T08:28:26;100713.0;;;20.18;42.30
48530;BME280;34927;37.302;-121.982;2023-03-15T08:29:31;100715.0;;;20.09;42.36
48530;BME280;34927;37.302;-121.982;2023-03-15T08:30:37;100716.0;;;20.10;42.30
48530;BME280;34927;37.302;-121.982;2023-03-15T08:31:41;100716.0;;;20.11;42.24
48530;BME280;34927;37.302;-121.982;2023-03-15T08:32:48;100718.0;;;20.16;42.20
48530;BME280;34927;37.302;-121.982;2023-03-15T08:33:52;100716.0;;;20.14;42.12
48530;BME280;34927;37.302;-121.982;2023-03-15T08:34:56;100719.0;;;20.10;42.22
48530;BME280;34927;37.302;-121.982;2023-03-15T08:36:02;100719.0;;;20.16;42.11
48530;BME280;34927;37.302;-121.982;2023-03-15T08:37:06;100720.0;;;20.13;42.10
48530;BME280;34927;37.302;-121.982;2023-03-15T08:38:11;100721.0;;;20.08;42.19
48530;BME280;34927;37.302;-121.982;2023-03-15T08:39:14;100718.0;;;20.04;42.22
48530;BME280;34927;37.302;-121.982;2023-03-15T08:40:18;100713.0;;;20.04;42.23
48530;BME280;34927;37.302;-121.982;2023-03-15T08:41:21;100711.0;;;20.02;42.22
48530;BME280;34927;37.302;-121.982;2023-03-15T08:42:26;100709.0;;;20.02;42.18
48530;BME280;34927;37.302;-121.982;2023-03-15T08:43:32;100706.0;;;20.10;42.09
48530;BME280;34927;37.302;-121.982;2023-03-15T08:44:36;100707.0;;;20.11;42.05
48530;BME280;34927;37.302;-121.982;2023-03-15T08:45:41;100707.0;;;20.02;42.15
48530;BME280;34927;37.302;-121.982;2023-03-15T08:46:46;100710.0;;;20.06;42.07
48530;BME280;34927;37.302;-121.982;2023-03-15T08:47:54;100711.0;;;19.96;42.16
48530;BME280;34927;37.302;-121.982;2023-03-15T08:48:56;100714.0;;;20.02;42.08
48530;BME280;34927;37.302;-121.982;2023-03-15T08:50:02;100713.0;;;20.03;42.03
48530;BME280;34927;37.302;-121.982;2023-03-15T08:51:07;100714.0;;;20.09;41.95
48530;BME280;34927;37.302;-121.982;2023-03-15T08:52:12;100714.0;;;20.01;42.01
48530;BME280;34927;37.302;-121.982;2023-03-15T08:53:17;100714.0;;;19.95;42.08
48530;BME280;34927;37.302;-121.982;2023-03-15T08:54:21;100717.0;;;19.86;42.31
48530;BME280;34927;37.302;-121.982;2023-03-15T08:55:27;100718.0;;;19.86;42.23
48530;BME280;34927;37.302;-121.982;2023-03-15T08:56:31;100715.0;;;19.96;42.05
48530;BME280;34927;37.302;-121.982;2023-03-15T08:57:36;100714.0;;;19.80;42.30
48530;BME280;34927;37.302;-121.982;2023-03-15T08:58:42;100714.0;;;19.77;42.39
48530;BME280;34927;37.302;-121.982;2023-03-15T08:59:47;100716.0;;;19.86;42.22
48530;BME280;34927;37.302;-121.982;2023-03-15T09:00:52;100717.0;;;19.73;42.32
48530;BME280;34927;37.302;-121.982;2023-03-15T09:01:56;100721.0;;;19.82;42.23
48530;BME280;34927;37.302;-121.982;2023-03-15T09:03:02;100724.0;;;19.87;42.09
48530;BME280;34927;37.302;-121.982;2023-03-15T09:04:07;100726.0;;;19.76;42.24
48530;BME280;34927;37.302;-121.982;2023-03-15T09:05:11;100731.0;;;19.80;42.26
48530;BME280;34927;37.302;-121.982;2023-03-15T09:06:16;100733.0;;;19.78;42.18
48530;BME280;34927;37.302;-121.982;2023-03-15T09:07:21;100733.0;;;19.82;42.19
48530;BME280;34927;37.302;-121.982;2023-03-15T09:08:27;100733.0;;;19.80;42.09
48530;BME280;34927;37.302;-121.982;2023-03-15T09:09:31;100733.0;;;19.79;42.14
48530;BME280;34927;37.302;-121.982;2023-03-15T09:10:37;100733.0;;;19.77;42.12
48530;BME280;34927;37.302;-121.982;2023-03-15T09:11:41;100732.0;;;19.76;42.12
48530;BME280;34927;37.302;-121.982;2023-03-15T09:12:48;100732.0;;;19.74;42.26
48530;BME280;34927;37.302;-121.982;2023-03-15T09:13:52;100732.0;;;19.73;42.18
48530;BME280;34927;37.302;-121.982;2023-03-15T09:14:56;100732.0;;;19.67;42.31
48530;BME280;34927;37.302;-121.982;2023-03-15T09:16:01;100733.0;;;19.68;42.28
48530;BME280;34927;37.302;-121.982;2023-03-15T09:17:07;100734.0;;;19.68;42.20
48530;BME280;34927;37.302;-121.982;2023-03-15T09:18:11;100735.0;;;19.70;42.24
48530;BME280;34927;37.302;-121.982;2023-03-15T09:19:17;100739.0;;;19.76;42.08
48530;BME280;34927;37.302;-121.982;2023-03-15T09:20:21;100740.0;;;19.63;42.27
48530;BME280;34927;37.302;-121.982;2023-03-15T09:21:26;100742.0;;;19.61;42.36
48530;BME280;34927;37.302;-121.982;2023-03-15T09:22:32;100748.0;;;19.61;42.32
48530;BME280;34927;37.302;-121.982;2023-03-15T09:23:36;100748.0;;;19.69;42.20
48530;BME280;34927;37.302;-121.982;2023-03-15T09:24:41;100746.0;;;19.57;42.33
48530;BME280;34927;37.302;-121.982;2023-03-15T09:25:47;100746.0;;;19.59;42.31
48530;BME280;34927;37.302;-121.982;2023-03-15T09:26:51;100744.0;;;19.49;42.47
48530;BME280;34927;37.302;-121.982;2023-03-15T09:27:56;100746.0;;;19.61;42.24
48530;BME280;34927;37.302;-121.982;2023-03-15T09:29:02;100746.0;;;19.56;42.27
48530;BME280;34927;37.302;-121.982;2023-03-15T09:30:07;100746.0;;;19.50;42.40
48530;BME280;34927;37.302;-121.982;2023-03-15T09:31:11;100748.0;;;19.39;42.56
48530;BME280;34927;37.302;-121.982;2023-03-15T09:32:16;100749.0;;;19.41;42.56
48530;BME280;34927;37.302;-121.982;2023-03-15T09:33:21;100753.0;;;19.36;42.58
48530;BME280;34927;37.302;-121.982;2023-03-15T09:34:26;100756.0;;;19.33;42.75
48530;BME280;34927;37.302;-121.982;2023-03-15T09:35:32;100757.0;;;19.38;42.58
48530;BME280;34927;37.302;-121.982;2023-03-15T09:36:36;100755.0;;;19.35;42.67
48530;BME280;34927;37.302;-121.982;2023-03-15T09:37:42;100755.0;;;19.35;42.69
48530;BME280;34927;37.302;-121.982;2023-03-15T09:38:47;100756.0;;;19.40;42.64
48530;BME280;34927;37.302;-121.982;2023-03-15T09:39:51;100754.0;;;19.29;42.75
48530;BME280;34927;37.302;-121.982;2023-03-15T09:40:58;100756.0;;;19.32;42.64
48530;BME280;34927;37.302;-121.982;2023-03-15T09:42:02;100759.0;;;19.32;42.62
48530;BME280;34927;37.302;-121.982;2023-03-15T09:43:21;100759.0;;;19.36;42.54
48530;BME280;34927;37.302;-121.982;2023-03-15T09:44:37;100758.0;;;19.31;42.60
48530;BME280;34927;37.302;-121.982;2023-03-15T09:45:56;100758.0;;;19.43;42.37
48530;BME280;34927;37.302;-121.982;2023-03-15T09:47:15;100760.0;;;19.33;42.55
48530;BME280;34927;37.302;-121.982;2023-03-15T09:48:26;100759.0;;;19.25;42.64
48530;BME280;34927;37.302;-121.982;2023-03-15T09:49:38;100767.0;;;19.27;42.64
48530;BME280;34927;37.302;-121.982;2023-03-15T09:50:49;100767.0;;;19.19;42.78
48530;BME280;34927;37.302;-121.982;2023-03-15T09:51:59;100772.0;;;19.23;42.69
48530;BME280;34927;37.302;-121.982;2023-03-15T09:53:11;100772.0;;;19.19;42.75
48530;BME280;34927;37.302;-121.982;2023-03-15T09:54:19;100778.0;;;19.18;42.68
48530;BME280;34927;37.302;-121.982;2023-03-15T09:55:27;100783.0;;;19.22;42.62
48530;BME280;34927;37.302;-121.982;2023-03-15T09:56:35;100785.0;;;19.23;42.54
48530;BME280;34927;37.302;-121.982;2023-03-15T09:57:47;100786.0;;;19.22;42.56
48530;BME280;34927;37.302;-121.982;2023-03-15T09:58:57;100787.0;;;19.18;42.62
48530;BME280;34927;37.302;-121.982;2023-03-15T10:00:04;100788.0;;;19.10;42.79
48530;BME280;34927;37.302;-121.982;2023-03-15T10:01:09;100791.0;;;19.20;42.65
48530;BME280;34927;37.302;-121.982;2023-03-15T10:02:23;100793.0;;;19.16;42.69
48530;BME280;34927;37.302;-121.982;2023-03-15T10:03:32;100796.0;;;19.14;42.64
48530;BME280;34927;37.302;-121.982;2023-03-15T10:04:37;100798.0;;;19.08;42.69
48530;BME280;34927;37.302;-121.982;2023-03-15T10:05:43;100799.0;;;19.07;42.78
48530;BME280;34927;37.302;-121.982;2023-03-15T10:06:51;100800.0;;;18.98;42.88
48530;BME280;34927;37.302;-121.982;2023-03-15T10:07:57;100803.0;;;19.06;42.73
48530;BME280;34927;37.302;-121.982;2023-03-15T10:09:08;100806.0;;;19.00;42.92
48530;BME280;34927;37.302;-121.982;2023-03-15T10:11:22;100812.0;;;19.03;42.80
48530;BME280;34927;37.302;-121.982;2023-03-15T10:12:35;100813.0;;;19.02;42.78
48530;BME280;34927;37.302;-121.982;2023-03-15T10:13:53;100819.0;;;18.94;42.91
48530;BME280;34927;37.302;-121.982;2023-03-15T10:15:16;100819.0;;;18.94;42.95
48530;BME280;34927;37.302;-121.982;2023-03-15T10:16:34;100816.0;;;18.87;43.06
48530;BME280;34927;37.302;-121.982;2023-03-15T10:17:46;100815.0;;;18.93;42.96
48530;BME280;34927;37.302;-121.982;2023-03-15T10:19:05;100815.0;;;18.88;42.98
48530;BME280;34927;37.302;-121.982;2023-03-15T10:20:18;100814.0;;;18.88;43.02
48530;BME280;34927;37.302;-121.982;2023-03-15T10:21:34;100812.0;;;18.86;43.08
48530;BME280;34927;37.302;-121.982;2023-03-15T10:22:47;100812.0;;;18.77;43.09
48530;BME280;34927;37.302;-121.982;2023-03-15T10:23:57;100812.0;;;18.80;43.07
48530;BME280;34927;37.302;-121.982;2023-03-15T10:25:08;100813.0;;;18.82;43.01
48530;BME280;34927;37.302;-121.982;2023-03-15T10:26:21;100812.0;;;18.83;42.99
48530;BME280;34927;37.302;-121.982;2023-03-15T10:27:32;100810.0;;;18.75;43.11
48530;BME280;34927;37.302;-121.982;2023-03-15T10:28:36;100808.0;;;18.81;43.08
48530;BME280;34927;37.302;-121.982;2023-03-15T10:29:42;100805.0;;;18.77;43.03
48530;BME280;34927;37.302;-121.982;2023-03-15T10:30:48;100807.0;;;18.80;43.00
48530;BME280;34927;37.302;-121.982;2023-03-15T10:31:52;100809.0;;;18.79;43.01
48530;BME280;34927;37.302;-121.982;2023-03-15T10:32:58;100810.0;;;18.82;42.91
48530;BME280;34927;37.302;-121.982;2023-03-15T10:34:08;100811.0;;;18.77;42.98
48530;BME280;34927;37.302;-121.982;2023-03-15T10:35:15;100813.0;;;18.78;42.94
48530;BME280;34927;37.302;-121.982;2023-03-15T10:36:23;100814.0;;;18.76;42.99
48530;BME280;34927;37.302;-121.982;2023-03-15T10:37:27;100812.0;;;18.72;43.00
48530;BME280;34927;37.302;-121.982;2023-03-15T10:38:31;100812.0;;;18.70;43.12
48530;BME280;34927;37.302;-121.982;2023-03-15T10:39:36;100812.0;;;18.72;42.95
48530;BME280;34927;37.302;-121.982;2023-03-15T10:40:44;100812.0;;;18.73;42.96
48530;BME280;34927;37.302;-121.982;2023-03-15T10:41:48;100812.0;;;18.72;43.00
48530;BME280;34927;37.302;-121.982;2023-03-15T10:42:53;100812.0;;;18.73;42.96
48530;BME280;34927;37.302;-121.982;2023-03-15T10:44:00;100810.0;;;18.66;43.07
48530;BME280;34927;37.302;-121.982;2023-03-15T10:45:20;100809.0;;;18.62;43.15
48530;BME280;34927;37.302;-121.982;2023-03-15T10:46:27;100806.0;;;18.71;42.99
48530;BME280;34927;37.302;-121.982;2023-03-15T10:47:40;100801.0;;;18.74;42.80
48530;BME280;34927;37.302;-121.982;2023-03-15T10:48:54;100796.0;;;18.66;42.98
48530;BME280;34927;37.302;-121.982;2023-03-15T10:50:01;100794.0;;;18.73;42.91
48530;BME280;34927;37.302;-121.982;2023-03-15T10:51:15;100794.0;;;18.69;42.88
48530;BME280;34927;37.302;-121.982;2023-03-15T10:52:33;100793.0;;;18.64;42.95
48530;BME280;34927;37.302;-121.982;2023-03-15T10:54:52;100797.0;;;18.59;43.02
48530;BME280;34927;37.302;-121.982;2023-03-15T10:56:00;100798.0;;;18.54;43.07
48530;BME280;34927;37.302;-121.982;2023-03-15T10:57:13;100800.0;;;18.60;43.03
48530;BME280;34927;37.302;-121.982;2023-03-15T10:58:21;100801.0;;;18.58;43.00
48530;BME280;34927;37.302;-121.982;2023-03-15T10:59:28;100804.0;;;18.54;42.95
48530;BME280;34927;37.302;-121.982;2023-03-15T11:00:34;100803.0;;;18.56;42.97
48530;BME280;34927;37.302;-121.982;2023-03-15T11:01:36;100803.0;;;18.52;43.08
48530;BME280;34927;37.302;-121.982;2023-03-15T11:02:48;100801.0;;;18.60;42.89
48530;BME280;34927;37.302;-121.982;2023-03-15T11:05:15;100797.0;;;18.52;42.97
48530;BME280;34927;37.302;-121.982;2023-03-15T11:06:26;100800.0;;;18.53;42.99
48530;BME280;34927;37.302;-121.982;2023-03-15T11:07:34;100800.0;;;18.50;43.01
48530;BME280;34927;37.302;-121.982;2023-03-15T11:08:40;100799.0;;;18.56;42.95
48530;BME280;34927;37.302;-121.982;2023-03-15T11:09:52;100797.0;;;18.50;42.95
48530;BME280;34927;37.302;-121.982;2023-03-15T11:10:58;100796.0;;;18.49;42.99
48530;BME280;34927;37.302;-121.982;2023-03-15T11:12:04;100798.0;;;18.55;42.84
48530;BME280;34927;37.302;-121.982;2023-03-15T11:13:16;100797.0;;;18.51;42.93
48530;BME280;34927;37.302;-121.982;2023-03-15T11:14:22;100795.0;;;18.43;43.06
48530;BME280;34927;37.302;-121.982;2023-03-15T11:15:26;100793.0;;;18.50;42.90
48530;BME280;34927;37.302;-121.982;2023-03-15T11:16:34;100790.0;;;18.49;42.94
48530;BME280;34927;37.302;-121.982;2023-03-15T11:17:43;100791.0;;;18.52;42.83
48530;BME280;34927;37.302;-121.982;2023-03-15T11:18:50;100787.0;;;18.42;43.02
48530;BME280;34927;37.302;-121.982;2023-03-15T11:19:58;100787.0;;;18.37;43.07
48530;BME280;34927;37.302;-121.982;2023-03-15T11:21:05;100787.0;;;18.39;43.03
48530;BME280;34927;37.302;-121.982;2023-03-15T11:22:13;100786.0;;;18.35;43.09
48530;BME280;34927;37.302;-121.982;2023-03-15T11:23:21;100785.0;;;18.39;42.97
48530;BME280;34927;37.302;-121.982;2023-03-15T11:24:28;100784.0;;;18.36;43.05
48530;BME280;34927;37.302;-121.982;2023-03-15T11:25:32;100782.0;;;18.41;42.96
48530;BME280;34927;37.302;-121.982;2023-03-15T11:26:38;100782.0;;;18.36;43.03
48530;BME280;34927;37.302;-121.982;2023-03-15T11:27:43;100785.0;;;18.43;42.92
48530;BME280;34927;37.302;-121.982;2023-03-15T11:28:48;100788.0;;;18.41;42.84
48530;BME280;34927;37.302;-121.982;2023-03-15T11:29:55;100790.0;;;18.40;42.92
48530;BME280;34927;37.302;-121.982;2023-03-15T11:31:03;100792.0;;;18.35;42.93
48530;BME280;34927;37.302;-121.982;2023-03-15T11:32:12;100791.0;;;18.38;42.86
48530;BME280;34927;37.302;-121.982;2023-03-15T11:33:30;100787.0;;;18.42;42.81
48530;BME280;34927;37.302;-121.982;2023-03-15T11:34:40;100786.0;;;18.29;43.01
48530;BME280;34927;37.302;-121.982;2023-03-15T11:35:47;100781.0;;;18.29;43.02
48530;BME280;34927;37.302;-121.982;2023-03-15T11:36:55;100780.0;;;18.29;42.95
48530;BME280;34927;37.302;-121.982;2023-03-15T11:38:04;100780.0;;;18.26;43.01
48530;BME280;34927;37.302;-121.982;2023-03-15T11:39:26;100784.0;;;18.28;42.91
48530;BME280;34927;37.302;-121.982;2023-03-15T11:40:32;100785.0;;;18.34;42.89
48530;BME280;34927;37.302;-121.982;2023-03-15T11:41:41;100785.0;;;18.28;42.88
48530;BME280;34927;37.302;-121.982;2023-03-15T11:42:49;100782.0;;;18.28;42.89